createdAt,value
2023-05-06T00:00:58.923Z,14.55
2023-05-06T00:03:25.384Z,14.15
2023-05-06T00:05:52.352Z,14.25
2023-05-06T00:08:18.656Z,14.35
2023-05-06T00:10:45.200Z,14.18
2023-05-06T00:13:12.737Z,15.60
2023-05-06T00:15:39.638Z,15.57
2023-05-06T00:18:06.449Z,15.63
2023-05-06T00:20:32.958Z,14.82
2023-05-06T00:22:59.738Z,15.35
2023-05-06T00:25:26.064Z,14.82
2023-05-06T00:27:53.151Z,13.80
2023-05-06T00:30:19.497Z,15.52
2023-05-06T00:32:46.096Z,14.77
2023-05-06T00:35:12.549Z,15.50
2023-05-06T00:37:38.857Z,15.07
2023-05-06T00:40:05.732Z,16.05
2023-05-06T00:42:32.896Z,14.38
2023-05-06T00:44:59.198Z,15.10
2023-05-06T00:47:25.815Z,15.23
2023-05-06T00:49:52.241Z,14.90
2023-05-06T00:52:19.750Z,13.68
2023-05-06T00:54:46.101Z,13.07
2023-05-06T00:57:12.520Z,13.48
2023-05-06T00:59:39.599Z,13.75
2023-05-06T01:02:05.951Z,13.95
2023-05-06T01:04:33.506Z,13.70
2023-05-06T01:07:17.512Z,13.75
2023-05-06T01:09:52.525Z,14.18
2023-05-06T01:12:37.276Z,12.48
2023-05-06T01:15:34.380Z,13.05
2023-05-06T01:18:04.214Z,14.10
2023-05-06T01:20:31.644Z,12.85
2023-05-06T01:22:58.042Z,13.38
2023-05-06T01:25:24.454Z,13.70
2023-05-06T01:27:50.833Z,12.98
2023-05-06T01:30:19.335Z,13.27
2023-05-06T01:33:10.702Z,13.90
2023-05-06T01:38:40.475Z,12.95
2023-05-06T01:41:08.263Z,14.07
2023-05-06T01:43:40.462Z,15.18
2023-05-06T01:46:10.993Z,13.55
2023-05-06T01:48:39.528Z,14.63
2023-05-06T01:51:05.944Z,15.02
2023-05-06T01:53:33.098Z,14.70
2023-05-06T01:55:59.411Z,14.02
2023-05-06T01:58:25.942Z,14.75
2023-05-06T02:00:52.295Z,14.82
2023-05-06T02:03:18.983Z,14.55
2023-05-06T02:05:45.602Z,13.57
2023-05-06T02:08:11.913Z,14.52
2023-05-06T02:10:38.262Z,13.45
2023-05-06T02:13:05.131Z,13.50
2023-05-06T02:15:31.494Z,13.05
2023-05-06T02:17:59.758Z,12.88
2023-05-06T02:20:26.234Z,13.63
2023-05-06T02:22:52.573Z,14.10
2023-05-06T02:25:18.930Z,14.10
2023-05-06T02:27:45.462Z,13.52
2023-05-06T02:30:12.051Z,12.88
2023-05-06T02:32:38.406Z,12.65
2023-05-06T02:35:05.232Z,12.15
2023-05-06T02:37:31.551Z,11.68
2023-05-06T02:39:57.944Z,12.55
2023-05-06T02:42:24.533Z,12.18
2023-05-06T02:44:51.337Z,12.60
2023-05-06T02:47:17.694Z,13.45
2023-05-06T02:49:44.052Z,15.77
2023-05-06T02:52:10.381Z,13.95
2023-05-06T02:54:36.689Z,13.65
2023-05-06T02:57:03.061Z,14.15
2023-05-06T02:59:29.474Z,13.63
2023-05-06T03:01:56.642Z,13.77
2023-05-06T03:04:23.351Z,13.77
2023-05-06T03:06:49.725Z,12.40
2023-05-06T03:09:16.013Z,12.98
2023-05-06T03:11:42.374Z,12.55
2023-05-06T03:14:08.701Z,13.70
2023-05-06T03:16:35.370Z,13.38
2023-05-06T03:19:05.671Z,12.85
2023-05-06T03:21:33.536Z,14.55
2023-05-06T03:23:59.889Z,14.23
2023-05-06T03:26:26.383Z,14.07
2023-05-06T03:28:52.722Z,14.77
2023-05-06T03:31:19.126Z,14.73
2023-05-06T03:33:45.500Z,14.98
2023-05-06T03:36:13.906Z,13.60
2023-05-06T03:38:41.096Z,13.63
2023-05-06T03:41:08.430Z,14.85
2023-05-06T03:43:34.869Z,14.70
2023-05-06T03:46:01.227Z,14.57
2023-05-06T03:48:27.608Z,13.40
2023-05-06T03:50:54.020Z,14.25
2023-05-06T03:53:20.376Z,13.77
2023-05-06T03:55:46.672Z,15.27
2023-05-06T03:58:13.067Z,15.85
2023-05-06T04:00:39.377Z,14.68
2023-05-06T04:03:05.706Z,14.93
2023-05-06T04:05:32.053Z,16.08
2023-05-06T04:07:58.365Z,15.75
2023-05-06T04:10:24.677Z,15.07
2023-05-06T04:12:50.998Z,14.75
2023-05-06T04:15:17.438Z,15.35
2023-05-06T04:17:43.756Z,15.75
2023-05-06T04:20:10.781Z,16.17
2023-05-06T04:22:38.285Z,15.23
2023-05-06T04:25:05.002Z,14.90
2023-05-06T04:27:32.067Z,15.20
2023-05-06T04:29:58.607Z,15.88
2023-05-06T04:32:28.010Z,16.20
2023-05-06T04:34:54.375Z,16.20
2023-05-06T04:37:21.017Z,15.75
2023-05-06T04:39:47.352Z,17.30
2023-05-06T04:42:14.592Z,17.65
2023-05-06T04:44:41.815Z,17.20
2023-05-06T04:47:08.192Z,19.15
2023-05-06T04:49:34.904Z,19.15
2023-05-06T04:52:01.797Z,18.98
2023-05-06T04:54:28.105Z,18.88
2023-05-06T04:56:54.507Z,17.15
2023-05-06T04:59:20.942Z,16.90
2023-05-06T05:01:47.325Z,16.77
2023-05-06T05:04:13.670Z,17.55
2023-05-06T05:06:39.989Z,17.38
2023-05-06T05:09:06.382Z,16.77
2023-05-06T05:11:32.684Z,16.60
2023-05-06T05:14:00.226Z,17.08
2023-05-06T05:16:28.605Z,15.38
2023-05-06T05:18:55.014Z,15.13
2023-05-06T05:21:21.315Z,14.73
2023-05-06T05:23:47.665Z,14.43
2023-05-06T05:26:14.146Z,13.93
2023-05-06T05:28:40.517Z,14.55
2023-05-06T05:31:09.675Z,14.20
2023-05-06T05:33:36.962Z,13.27
2023-05-06T05:36:04.131Z,15.02
2023-05-06T05:38:30.445Z,13.93
2023-05-06T05:40:56.853Z,13.38
2023-05-06T05:43:25.816Z,13.27
2023-05-06T05:45:52.289Z,12.68
2023-05-06T05:48:18.636Z,13.38
2023-05-06T05:50:45.818Z,13.30
2023-05-06T05:53:12.160Z,14.38
2023-05-06T05:55:38.464Z,13.23
2023-05-06T05:58:04.780Z,13.60
2023-05-06T06:00:31.185Z,14.35
2023-05-06T06:02:57.630Z,13.77
2023-05-06T06:05:23.988Z,14.45
2023-05-06T06:07:50.457Z,13.38
2023-05-06T06:10:16.863Z,13.35
2023-05-06T06:12:44.504Z,13.60
2023-05-06T06:15:11.659Z,12.88
2023-05-06T06:17:38.282Z,11.70
2023-05-06T06:20:05.331Z,11.77
2023-05-06T06:22:31.644Z,11.05
2023-05-06T06:24:58.000Z,11.38
2023-05-06T06:27:24.404Z,10.45
2023-05-06T06:29:50.760Z,9.50
2023-05-06T06:32:17.125Z,8.85
2023-05-06T06:34:43.642Z,8.85
2023-05-06T06:37:10.641Z,8.75
2023-05-06T06:39:36.943Z,8.68
2023-05-06T06:42:06.912Z,9.10
2023-05-06T06:44:33.993Z,9.40
2023-05-06T06:47:00.402Z,9.20
2023-05-06T06:49:27.407Z,9.20
2023-05-06T06:51:53.830Z,8.90
2023-05-06T06:54:20.328Z,9.18
2023-05-06T06:56:46.632Z,9.18
2023-05-06T06:59:12.928Z,8.98
2023-05-06T07:01:41.304Z,8.82
2023-05-06T07:04:07.778Z,9.50
2023-05-06T07:06:34.141Z,9.50
2023-05-06T07:09:00.690Z,9.13
2023-05-06T07:11:27.141Z,9.35
2023-05-06T07:13:53.482Z,8.70
2023-05-06T07:16:20.345Z,8.82
2023-05-06T07:18:46.698Z,8.85
2023-05-06T07:21:12.982Z,9.10
2023-05-06T07:23:39.286Z,9.57
2023-05-06T07:26:05.703Z,9.18
2023-05-06T07:28:32.037Z,8.98
2023-05-06T07:30:58.364Z,8.55
2023-05-06T07:33:24.794Z,8.48
2023-05-06T07:35:53.633Z,9.18
2023-05-06T07:38:22.915Z,8.98
2023-05-06T07:40:49.873Z,8.73
2023-05-06T07:43:16.251Z,9.00
2023-05-06T07:45:42.577Z,9.07
2023-05-06T07:48:08.975Z,8.80
2023-05-06T07:50:35.470Z,8.20
2023-05-06T07:53:01.837Z,8.63
2023-05-06T07:55:28.292Z,8.52
2023-05-06T07:57:54.572Z,8.32
2023-05-06T08:00:21.040Z,8.68
2023-05-06T08:02:48.506Z,8.55
2023-05-06T08:05:15.184Z,7.60
2023-05-06T08:07:42.407Z,8.65
2023-05-06T08:10:09.683Z,8.57
2023-05-06T08:12:36.614Z,7.53
2023-05-06T08:15:04.034Z,7.88
2023-05-06T08:17:30.439Z,8.20
2023-05-06T08:19:56.768Z,7.53
2023-05-06T08:22:23.082Z,7.75
2023-05-06T08:24:49.385Z,7.43
2023-05-06T08:27:15.713Z,7.95
2023-05-06T08:29:42.013Z,5.80
2023-05-06T08:32:08.444Z,7.05
2023-05-06T08:34:34.885Z,7.35
2023-05-06T08:37:01.899Z,7.68
2023-05-06T08:39:28.863Z,6.50
2023-05-06T08:41:56.336Z,6.60
2023-05-06T08:44:24.568Z,6.43
2023-05-06T08:46:51.393Z,6.03
2023-05-06T08:49:17.906Z,4.97
2023-05-06T08:51:45.012Z,5.60
2023-05-06T08:54:12.793Z,6.13
2023-05-06T08:56:43.291Z,5.78
2023-05-06T08:59:09.728Z,5.18
2023-05-06T09:01:36.978Z,5.63
2023-05-06T09:04:04.044Z,4.50
2023-05-06T09:06:30.420Z,5.05
2023-05-06T09:08:56.746Z,5.05
2023-05-06T09:11:25.650Z,5.03
2023-05-06T09:14:13.522Z,4.75
2023-05-06T09:16:42.532Z,4.55
2023-05-06T09:19:08.907Z,4.18
2023-05-06T09:21:36.941Z,4.70
2023-05-06T09:24:05.970Z,4.57
2023-05-06T09:26:33.795Z,4.40
2023-05-06T09:29:01.065Z,4.10
2023-05-06T09:31:28.582Z,4.45
2023-05-06T09:33:58.691Z,4.65
2023-05-06T09:36:27.467Z,4.93
2023-05-06T09:38:55.547Z,5.00
2023-05-06T09:41:26.798Z,4.75
2023-05-06T09:43:54.333Z,4.82
2023-05-06T09:46:25.140Z,4.03
2023-05-06T09:48:54.419Z,5.13
2023-05-06T09:51:21.261Z,4.75
2023-05-06T09:53:48.571Z,5.03
2023-05-06T09:56:16.046Z,3.80
2023-05-06T09:58:42.882Z,3.90
2023-05-06T10:01:09.559Z,3.83
2023-05-06T10:03:36.456Z,4.25
2023-05-06T10:06:05.891Z,5.20
2023-05-06T10:08:33.981Z,4.38
2023-05-06T10:11:05.076Z,4.40
2023-05-06T10:16:00.510Z,3.80
2023-05-06T10:18:29.596Z,4.13
2023-05-06T10:20:59.230Z,3.72
2023-05-06T10:23:44.226Z,4.00
2023-05-06T10:26:12.565Z,4.20
2023-05-06T10:28:43.464Z,3.63
2023-05-06T10:31:14.109Z,3.72
2023-05-06T10:33:44.567Z,3.85
2023-05-06T10:36:21.456Z,3.90
2023-05-06T10:39:00.396Z,3.78
2023-05-06T10:41:28.429Z,3.53
2023-05-06T10:43:59.790Z,3.17
2023-05-06T10:46:28.173Z,3.63
2023-05-06T10:49:04.266Z,3.75
2023-05-06T10:51:31.617Z,3.50
2023-05-06T10:54:16.977Z,3.53
2023-05-06T10:56:50.610Z,3.17
2023-05-06T10:59:29.507Z,3.58
2023-05-06T11:01:57.237Z,3.85
2023-05-06T11:04:23.739Z,3.45
2023-05-06T11:06:52.967Z,3.78
2023-05-06T11:09:20.406Z,3.00
2023-05-06T11:12:01.831Z,3.55
2023-05-06T11:14:35.933Z,3.53
2023-05-06T11:17:28.637Z,3.67
2023-05-06T11:20:19.259Z,3.15
2023-05-06T11:22:45.571Z,3.70
2023-05-06T11:25:12.127Z,3.53
2023-05-06T11:27:38.553Z,3.20
2023-05-06T11:30:05.579Z,3.47
2023-05-06T11:32:33.160Z,3.92
2023-05-06T11:34:59.601Z,3.80
2023-05-06T11:37:28.394Z,3.40
2023-05-06T11:39:55.426Z,3.45
2023-05-06T11:42:26.720Z,2.92
2023-05-06T11:45:00.421Z,3.20
2023-05-06T11:47:26.771Z,3.45
2023-05-06T11:49:56.100Z,3.83
2023-05-06T11:52:22.457Z,3.40
2023-05-06T11:54:52.038Z,3.58
2023-05-06T11:57:19.866Z,3.90
2023-05-06T11:59:46.307Z,3.85
2023-05-06T12:02:14.018Z,3.63
2023-05-06T12:04:46.314Z,3.05
2023-05-06T12:07:14.430Z,2.90
2023-05-06T12:09:43.900Z,3.13
2023-05-06T12:12:12.284Z,2.78
2023-05-06T12:14:39.407Z,2.83
2023-05-06T12:17:06.124Z,2.80
2023-05-06T12:19:33.298Z,2.10
2023-05-06T12:22:24.382Z,2.22
2023-05-06T12:27:33.510Z,1.83
2023-05-06T12:30:00.588Z,1.90
2023-05-06T12:32:28.011Z,2.40
2023-05-06T12:34:54.518Z,2.00
2023-05-06T12:37:30.284Z,2.83
2023-05-06T12:39:59.189Z,2.15
2023-05-06T12:42:34.122Z,2.33
2023-05-06T12:45:13.457Z,2.13
2023-05-06T12:47:39.841Z,2.20
2023-05-06T12:50:06.683Z,1.88
2023-05-06T12:52:33.347Z,3.08
2023-05-06T12:55:01.478Z,2.15
2023-05-06T12:57:27.897Z,2.08
2023-05-06T12:59:56.059Z,1.60
2023-05-06T13:02:22.519Z,2.03
2023-05-06T13:04:49.264Z,1.67
2023-05-06T13:07:15.664Z,1.52
2023-05-06T13:09:42.005Z,1.48
2023-05-06T13:12:08.449Z,2.03
2023-05-06T13:14:35.266Z,1.63
2023-05-06T13:17:04.657Z,1.70
2023-05-06T13:19:33.317Z,1.50
2023-05-06T13:22:00.741Z,1.70
2023-05-06T13:24:27.487Z,2.20
2023-05-06T13:26:53.855Z,2.00
2023-05-06T13:29:20.215Z,1.80
2023-05-06T13:31:46.573Z,1.77
2023-05-06T13:34:12.909Z,1.42
2023-05-06T13:36:39.305Z,1.60
2023-05-06T13:39:05.635Z,1.60
2023-05-06T13:41:32.609Z,1.63
2023-05-06T13:43:58.879Z,1.52
2023-05-06T13:46:27.082Z,1.45
2023-05-06T13:48:53.694Z,1.80
2023-05-06T13:51:20.059Z,1.67
2023-05-06T13:53:46.354Z,1.60
2023-05-06T13:56:12.783Z,2.00
2023-05-06T13:58:39.405Z,1.42
2023-05-06T14:01:06.013Z,1.50
2023-05-06T14:03:32.335Z,1.50
2023-05-06T14:05:58.863Z,1.65
2023-05-06T14:08:25.177Z,1.63
2023-05-06T14:10:51.493Z,1.80
2023-05-06T14:13:17.911Z,1.50
2023-05-06T14:15:44.459Z,1.80
2023-05-06T14:18:10.863Z,1.63
2023-05-06T14:20:37.219Z,1.10
2023-05-06T14:23:06.830Z,1.85
2023-05-06T14:25:33.213Z,1.30
2023-05-06T14:27:59.812Z,1.63
2023-05-06T14:30:26.184Z,1.95
2023-05-06T14:32:52.735Z,1.60
2023-05-06T14:35:19.218Z,1.50
2023-05-06T14:37:45.984Z,1.40
2023-05-06T14:40:12.660Z,1.23
2023-05-06T14:42:39.044Z,1.30
2023-05-06T14:45:06.010Z,1.60
2023-05-06T14:47:32.382Z,1.20
2023-05-06T14:49:58.768Z,1.05
2023-05-06T14:52:25.276Z,1.10
2023-05-06T14:54:51.588Z,1.42
2023-05-06T14:57:18.071Z,1.40
2023-05-06T14:59:44.497Z,1.50
2023-05-06T15:02:10.943Z,1.58
2023-05-06T15:04:37.319Z,1.48
2023-05-06T15:07:03.889Z,1.60
2023-05-06T15:09:30.769Z,1.10
2023-05-06T15:11:57.533Z,1.00
2023-05-06T15:14:23.945Z,1.30
2023-05-06T15:16:50.366Z,1.30
2023-05-06T15:19:16.711Z,1.15
2023-05-06T15:21:43.063Z,1.10
2023-05-06T15:24:09.366Z,1.27
2023-05-06T15:26:35.800Z,1.30
2023-05-06T15:29:02.103Z,1.02
2023-05-06T15:31:28.478Z,0.90
2023-05-06T15:33:55.194Z,1.17
2023-05-06T15:36:21.486Z,0.85
2023-05-06T15:38:50.529Z,1.00
2023-05-06T15:41:16.977Z,0.95
2023-05-06T15:43:43.363Z,1.00
2023-05-06T15:46:09.939Z,0.90
2023-05-06T15:48:36.715Z,1.15
2023-05-06T15:51:03.092Z,1.27
2023-05-06T15:53:29.392Z,1.65
2023-05-06T15:55:57.983Z,0.80
2023-05-06T15:58:30.406Z,1.20
2023-05-06T16:00:56.874Z,1.10
2023-05-06T16:03:23.250Z,1.20
2023-05-06T16:05:50.209Z,1.20
2023-05-06T16:08:16.550Z,1.17
2023-05-06T16:10:43.034Z,0.90
2023-05-06T16:13:09.365Z,1.33
2023-05-06T16:15:36.483Z,0.90
2023-05-06T16:18:02.969Z,0.93
2023-05-06T16:20:30.238Z,1.20
2023-05-06T16:22:56.542Z,0.82
2023-05-06T16:25:22.964Z,0.85
2023-05-06T16:27:49.285Z,1.00
2023-05-06T16:30:15.848Z,1.10
2023-05-06T16:32:42.317Z,0.73
2023-05-06T16:35:09.360Z,0.90
2023-05-06T16:37:36.456Z,0.73
2023-05-06T16:40:04.278Z,1.40
2023-05-06T16:42:30.787Z,0.90
2023-05-06T16:44:57.590Z,1.02
2023-05-06T16:47:27.240Z,0.80
2023-05-06T16:49:53.623Z,1.08
2023-05-06T16:52:20.140Z,0.90
2023-05-06T16:54:46.464Z,1.10
2023-05-06T16:57:12.902Z,0.63
2023-05-06T16:59:39.204Z,1.00
2023-05-06T17:02:05.614Z,0.80
2023-05-06T17:04:31.907Z,0.80
2023-05-06T17:06:58.553Z,1.35
2023-05-06T17:09:24.921Z,1.85
2023-05-06T17:11:51.231Z,1.77
2023-05-06T17:14:19.629Z,1.23
2023-05-06T17:16:46.924Z,1.35
2023-05-06T17:19:13.431Z,0.80
2023-05-06T17:21:39.827Z,0.70
2023-05-06T17:24:06.632Z,1.10
2023-05-06T17:26:33.883Z,0.90
2023-05-06T17:29:01.104Z,0.60
2023-05-06T17:31:27.488Z,1.00
2023-05-06T17:33:53.865Z,0.70
2023-05-06T17:36:23.293Z,0.80
2023-05-06T17:39:02.096Z,1.00
2023-05-06T17:41:28.397Z,1.00
2023-05-06T17:43:54.697Z,1.40
2023-05-06T17:46:21.033Z,1.30
2023-05-06T17:48:47.422Z,1.58
2023-05-06T17:51:13.782Z,1.55
2023-05-06T17:53:40.154Z,1.30
2023-05-06T17:56:06.544Z,1.80
2023-05-06T17:58:32.907Z,1.83
2023-05-06T18:00:59.255Z,2.05
2023-05-06T18:03:25.884Z,1.88
2023-05-06T18:05:52.317Z,2.20
2023-05-06T18:08:18.649Z,2.03
2023-05-06T18:10:44.972Z,2.33
2023-05-06T18:13:11.395Z,2.13
2023-05-06T18:15:37.761Z,2.08
2023-05-06T18:18:04.295Z,2.70
2023-05-06T18:20:30.682Z,2.05
2023-05-06T18:22:58.599Z,2.10
2023-05-06T18:25:25.252Z,2.08
2023-05-06T18:27:51.887Z,1.83
2023-05-06T18:30:18.221Z,2.20
2023-05-06T18:32:44.645Z,2.08
2023-05-06T18:35:11.512Z,2.00
2023-05-06T18:37:38.382Z,1.70
2023-05-06T18:40:05.969Z,1.80
2023-05-06T18:42:33.891Z,1.77
2023-05-06T18:45:02.944Z,1.88
2023-05-06T18:47:29.251Z,1.73
2023-05-06T18:49:57.452Z,2.20
2023-05-06T18:52:23.729Z,1.77
2023-05-06T18:54:50.153Z,1.92
2023-05-06T18:57:16.510Z,1.83
2023-05-06T18:59:43.004Z,1.65
2023-05-06T19:02:09.369Z,1.67
2023-05-06T19:04:35.912Z,1.40
2023-05-06T19:07:02.723Z,1.40
2023-05-06T19:09:29.036Z,1.40
2023-05-06T19:11:55.672Z,1.60
2023-05-06T19:14:23.561Z,1.52
2023-05-06T19:16:51.327Z,1.55
2023-05-06T19:19:17.655Z,1.65
2023-05-06T19:21:43.979Z,1.92
2023-05-06T19:24:10.315Z,2.50
2023-05-06T19:26:38.577Z,1.85
2023-05-06T19:29:04.917Z,2.13
2023-05-06T19:31:31.500Z,2.17
2023-05-06T19:33:58.005Z,1.50
2023-05-06T19:36:24.343Z,1.55
2023-05-06T19:38:50.674Z,1.90
2023-05-06T19:41:16.991Z,5.50
2023-05-06T19:43:44.062Z,2.38
2023-05-06T19:46:11.429Z,1.85
2023-05-06T19:48:38.916Z,1.90
2023-05-06T19:51:06.461Z,1.30
2023-05-06T19:53:33.702Z,1.35
2023-05-06T19:56:11.501Z,1.23
2023-05-06T19:58:38.278Z,1.40
2023-05-06T20:01:04.653Z,1.40
2023-05-06T20:03:32.284Z,1.80
2023-05-06T20:05:58.978Z,1.27
2023-05-06T20:08:25.893Z,1.40
2023-05-06T20:10:52.242Z,1.45
2023-05-06T20:13:18.824Z,1.42
2023-05-06T20:15:45.650Z,1.42
2023-05-06T20:18:12.011Z,1.48
2023-05-06T20:20:41.762Z,1.40
2023-05-06T20:23:08.100Z,1.40
2023-05-06T20:25:37.028Z,1.70
2023-05-06T20:28:05.224Z,1.30
2023-05-06T20:30:31.758Z,1.40
2023-05-06T20:32:58.621Z,1.25
2023-05-06T20:35:25.665Z,1.60
2023-05-06T20:37:54.222Z,1.42
2023-05-06T20:40:20.903Z,2.30
2023-05-06T20:42:47.976Z,2.63
2023-05-06T20:45:14.350Z,3.58
2023-05-06T20:47:40.914Z,2.60
2023-05-06T20:50:07.464Z,1.80
2023-05-06T20:52:33.946Z,1.50
2023-05-06T20:55:00.983Z,1.73
2023-05-06T20:57:28.309Z,1.90
2023-05-06T20:59:55.939Z,1.85
2023-05-06T21:02:22.447Z,1.92
2023-05-06T21:04:48.899Z,2.10
2023-05-06T21:07:15.263Z,1.88
2023-05-06T21:09:41.588Z,2.38
2023-05-06T21:12:07.937Z,1.70
2023-05-06T21:14:34.352Z,1.85
2023-05-06T21:17:00.734Z,1.85
2023-05-06T21:19:27.124Z,2.40
2023-05-06T21:21:53.493Z,2.22
2023-05-06T21:24:19.820Z,2.33
2023-05-06T21:26:46.712Z,2.80
2023-05-06T21:29:13.011Z,2.63
2023-05-06T21:31:39.373Z,2.30
2023-05-06T21:34:07.837Z,2.40
2023-05-06T21:36:36.136Z,2.45
2023-05-06T21:39:11.963Z,2.53
2023-05-06T21:41:38.735Z,2.63
2023-05-06T21:44:06.508Z,2.50
2023-05-06T21:46:33.344Z,2.30
2023-05-06T21:49:00.500Z,2.38
2023-05-06T21:51:28.077Z,2.30
2023-05-06T21:53:54.547Z,2.58
2023-05-06T21:56:21.335Z,2.65
2023-05-06T21:58:47.815Z,2.75
2023-05-06T22:01:14.164Z,3.00
2023-05-06T22:03:40.746Z,3.53
2023-05-06T22:06:07.300Z,3.88
2023-05-06T22:08:33.682Z,3.70
2023-05-06T22:11:00.008Z,4.10
2023-05-06T22:13:27.247Z,4.30
2023-05-06T22:15:54.255Z,3.90
2023-05-06T22:18:20.641Z,4.05
2023-05-06T22:20:49.001Z,3.72
2023-05-06T22:23:15.481Z,3.92
2023-05-06T22:25:41.847Z,4.20
2023-05-06T22:28:08.134Z,3.83
2023-05-06T22:30:34.483Z,4.40
2023-05-06T22:33:00.994Z,4.88
2023-05-06T22:35:27.354Z,4.90
2023-05-06T22:37:53.679Z,4.22
2023-05-06T22:40:20.025Z,5.00
2023-05-06T22:42:47.829Z,4.32
2023-05-06T22:45:14.152Z,4.55
2023-05-06T22:47:40.752Z,4.68
2023-05-06T22:50:08.011Z,4.38
2023-05-06T22:52:34.386Z,4.75
2023-05-06T22:55:00.703Z,4.63
2023-05-06T22:57:27.031Z,4.55
2023-05-06T22:59:53.367Z,4.55
2023-05-06T23:02:19.683Z,4.38
2023-05-06T23:04:46.030Z,4.70
2023-05-06T23:07:13.703Z,4.20
2023-05-06T23:09:40.240Z,4.18
2023-05-06T23:12:06.551Z,4.50
2023-05-06T23:14:32.919Z,4.32
2023-05-06T23:16:59.224Z,3.90
2023-05-06T23:19:25.861Z,4.00
2023-05-06T23:21:52.257Z,4.28
2023-05-06T23:24:18.617Z,4.38
2023-05-06T23:26:44.910Z,4.13
2023-05-06T23:29:11.253Z,4.78
2023-05-06T23:31:37.638Z,4.30
2023-05-06T23:34:03.930Z,4.88
2023-05-06T23:36:30.712Z,5.22
2023-05-06T23:38:56.998Z,5.30
2023-05-06T23:41:23.444Z,5.13
2023-05-06T23:43:49.772Z,5.60
2023-05-06T23:46:16.213Z,5.50
2023-05-06T23:48:42.586Z,5.47
2023-05-06T23:51:08.886Z,5.30
2023-05-06T23:53:35.987Z,5.68
2023-05-06T23:56:02.644Z,5.43
2023-05-06T23:58:29.051Z,5.18
